Orbital elements of ARIANE 44L DEB
| Launched | 14 January 1991 |
| Flight ended | – |
| Launch site | Europe's Spaceport, Kourou, French Guiana |
| Owner | France |
| NORAD ID | 24741 |
| Date fetched |
Epoch osculation |
Inc. [°] |
Ecc. | RA asc node [hr] |
Arg Peri. [°] |
Mean anom [°] |
Mean motion [rev/day] |
Abs. mag |
| Date fetched |
Epoch osculation |
Inc. [°] |
Ecc. | RA asc node [hr] |
Arg Peri. [°] |
Mean anom [°] |
Mean motion [rev/day] |
Abs. mag |
| 2026 May 09 17:57 | 2026 May 05 11:32:15 | 6.5317 | 0.68087 | 13.2572 | 176.5856 | 350.6627 | 2.65570 | – |
| 2026 May 08 17:57 | 2026 May 05 11:32:15 | 6.5317 | 0.68087 | 13.2572 | 176.5856 | 350.6627 | 2.65570 | – |
| 2026 May 07 17:58 | 2026 May 05 11:32:15 | 6.5317 | 0.68087 | 13.2572 | 176.5856 | 350.6627 | 2.65570 | – |
| 2026 May 06 17:57 | 2026 May 05 11:32:15 | 6.5317 | 0.68087 | 13.2572 | 176.5856 | 350.6627 | 2.65570 | – |
| 2026 May 05 17:57 | 2026 May 05 11:32:15 | 6.5317 | 0.68087 | 13.2572 | 176.5856 | 350.6627 | 2.65570 | – |
| 2026 May 04 17:57 | 2026 Apr 30 12:34:41 | 6.5365 | 0.68090 | 13.4093 | 172.0994 | 350.6627 | 2.65570 | – |
| 2026 May 03 17:57 | 2026 Apr 30 12:34:41 | 6.5365 | 0.68090 | 13.4093 | 172.0994 | 350.6627 | 2.65570 | – |
| 2026 May 02 17:57 | 2026 Apr 30 12:34:41 | 6.5365 | 0.68090 | 13.4093 | 172.0994 | 350.6627 | 2.65570 | – |
| 2026 May 01 17:56 | 2026 Apr 30 12:34:41 | 6.5365 | 0.68090 | 13.4093 | 172.0994 | 350.6627 | 2.65570 | – |
| 2026 Apr 30 17:56 | 2026 Apr 30 12:34:41 | 6.5365 | 0.68090 | 13.4093 | 172.0994 | 350.6627 | 2.65570 | – |
| 2026 Apr 29 17:57 | 2026 Apr 24 10:59:36 | 6.5419 | 0.68093 | 13.5962 | 166.5939 | 350.6627 | 2.65570 | – |
| 2026 Apr 28 17:56 | 2026 Apr 24 10:59:36 | 6.5419 | 0.68093 | 13.5962 | 166.5939 | 350.6627 | 2.65570 | – |
| 2026 Apr 27 17:58 | 2026 Apr 24 10:59:36 | 6.5419 | 0.68093 | 13.5962 | 166.5939 | 350.6627 | 2.65570 | – |
| 2026 Apr 26 17:58 | 2026 Apr 24 10:59:36 | 6.5419 | 0.68093 | 13.5962 | 166.5939 | 350.6627 | 2.65570 | – |
| 2026 Apr 25 17:58 | 2026 Apr 24 10:59:36 | 6.5419 | 0.68093 | 13.5962 | 166.5939 | 350.6627 | 2.65570 | – |
| 2026 Apr 24 17:59 | 2026 Apr 24 10:59:36 | 6.5419 | 0.68093 | 13.5962 | 166.5939 | 350.6627 | 2.65570 | – |
| 2026 Apr 23 17:57 | 2026 Apr 19 04:00:32 | 6.5457 | 0.68096 | 13.7591 | 161.7900 | 350.6627 | 2.65570 | – |
| 2026 Apr 22 17:57 | 2026 Apr 19 04:00:32 | 6.5457 | 0.68096 | 13.7591 | 161.7900 | 350.6627 | 2.65570 | – |
| 2026 Apr 21 17:57 | 2026 Apr 19 04:00:32 | 6.5457 | 0.68096 | 13.7591 | 161.7900 | 350.6627 | 2.65570 | – |
| 2026 Apr 20 17:57 | 2026 Apr 19 04:00:32 | 6.5457 | 0.68096 | 13.7591 | 161.7900 | 350.6627 | 2.65570 | – |
| 2026 Apr 19 17:58 | 2026 Apr 19 04:00:32 | 6.5457 | 0.68096 | 13.7591 | 161.7900 | 350.6627 | 2.65570 | – |
| 2026 Apr 18 17:56 | 2026 Apr 13 01:55:50 | 6.5502 | 0.68102 | 13.9470 | 156.2557 | 350.6627 | 2.65570 | – |
| 2026 Apr 16 17:57 | 2026 Apr 13 01:55:50 | 6.5502 | 0.68102 | 13.9470 | 156.2557 | 350.6627 | 2.65570 | – |
| 2026 Apr 14 17:57 | 2026 Apr 13 01:55:50 | 6.5502 | 0.68102 | 13.9470 | 156.2557 | 350.6627 | 2.65570 | – |
| 2026 Apr 13 17:57 | 2026 Apr 13 01:55:50 | 6.5502 | 0.68102 | 13.9470 | 156.2557 | 350.6627 | 2.65570 | – |
| 2026 Apr 12 17:57 | 2026 Apr 08 13:18:51 | 6.5532 | 0.68105 | 14.0866 | 152.1385 | 350.6627 | 2.65570 | – |